Terminal Aerodrome Forecast
Issued by NWS Jackson, MS

Home | Current Version | Previous Version | Text Only | Print | Product List | Glossary On
Versions: 1 2 3 4 5 6 7 8 9 10 11 12 13 14
873
FTUS44 KJAN 190058 AAA
TAFMEI
TAF AMD
KMEI 190058Z 1901/1924 30018G34KT 1 1/2SM +RA VCSH FEW008 BKN070
      OVC100
     FM190200 31020G29KT P6SM OVC025
     FM190500 34014G20KT P6SM BKN035
     FM190900 35013KT P6SM SKC=

USA.gov is the U.S. government's official web portal to all federal, state and local government web resources and services.